Washington, DC

7:15 PM EDT on July 26, 2016 (GMT -0400)
Eckington Pl, NE | | Change Station

Elev 90 ft 38.91 °N, 77.01 °W | Updated 2 minutes ago

Mostly Cloudy
Mostly Cloudy
92.5 °F
Feels Like 98 °F
N
3.0
Wind Variable Wind from WNW
Gusts 8.0 mph

Today
High -- | Low -- °F
--% Chance of Precip.
Yesterday
High -- | Low -- °F
Precip. -- in
Pressure 29.91 in
Visibility 10.0 miles
Clouds Few 5500 ft
Scattered Clouds 15000 ft
Mostly Cloudy 25000 ft
Heat Index 98 °F
Dew Point 69 °F
Humidity 47%
Rainfall Not available.
Snow Depth Not available.
6:04 AM 8:24 PM
Waning Gibbous, 50% visible
METAR KDCA 262252Z 33008KT 10SM FEW055 SCT150 BKN250 33/18 A2991 RMK AO2 SLP129 CB DSNT SW MOV NE T03330183
Pressure 29.91 in
Visibility 10.0 miles
Clouds Few 5500 ft
Scattered Clouds 15000 ft
Mostly Cloudy 25000 ft
Heat Index 98 °F
Dew Point 69 °F
Humidity 47%
Rainfall Not available.
Snow Depth Not available.
6:04 AM 8:24 PM
Waning Gibbous, 50% visible
METAR KDCA 262252Z 33008KT 10SM FEW055 SCT150 BKN250 33/18 A2991 RMK AO2 SLP129 CB DSNT SW MOV NE T03330183

10-Day Weather Forecast

Almanac

Astronomy

Jul. 26, 2016 Rise Set
Actual Time
Civil Twilight
Nautical Twilight
Astronomical Twilight
Moon
Length of Visible Light
Length of Day
Tomorrow will be .
, % of the Moon is Illuminated

Today's Extremes

State Highs State Lows

Community

WunderPhotos

Upload Photos

1,927,729 photos uploaded!

WunderBlog® & News

Nearby

Air Quality

  Air Quality AQ Index Pollutant
Not available.

Snow Depth

Station Depth Elevation

Earthquake Activity

City Distance Mag. Time & Date
Minimum magnitude displayed is 2.5.

Coastal Water Temperatures

Place Temperature

Stations

Nearby Weather Stations

Station Location Temp. Windchill Dew Point Humidity Wind Precip. Elev Updated Type
                   

Watches & Warnings

There are currently no watches in effect.